Time;durP1;ratioP1;P1;durP2;ratioP2;P2;SDS_P1;SDS_P2;PMS_P1;PMS_P2;Temp;Humidity;BMP_temperature;BMP_pressure;BME280_temperature;BME280_humidity;BME280_pressure;Samples;Min_cycle;Max_cycle;Signal;HPM_P1;HPM_P2
2022/01/05 00:00:41;;;;;;;8.30;1.65;;;18.60;57.70;;;;;;5153985;27;20156;-83
2022/01/05 00:03:07;;;;;;;5.70;1.98;;;18.60;58.10;;;;;;5153963;27;20144;-84
2022/01/05 00:05:33;;;;;;;5.28;1.67;;;18.60;58.20;;;;;;5137931;27;20230;-84
2022/01/05 00:08:00;;;;;;;8.18;1.95;;;18.50;58.30;;;;;;5153967;27;20151;-83
2022/01/05 00:10:26;;;;;;;5.38;1.63;;;18.50;58.30;;;;;;5153740;27;20610;-84
2022/01/05 00:12:51;;;;;;;4.95;1.90;;;18.50;58.30;;;;;;5119552;27;20175;-82
2022/01/05 00:15:17;;;;;;;5.63;1.40;;;18.50;58.50;;;;;;5136255;27;20163;-83
2022/01/05 00:17:44;;;;;;;5.57;1.75;;;18.60;58.50;;;;;;5137341;27;20184;-84
2022/01/05 00:20:10;;;;;;;6.50;1.52;;;18.50;58.30;;;;;;5137453;27;20147;-84
2022/01/05 00:22:36;;;;;;;4.40;1.60;;;18.60;58.20;;;;;;5136030;27;20195;-83
2022/01/05 00:25:02;;;;;;;6.07;1.42;;;18.50;58.50;;;;;;5135756;27;20183;-83
2022/01/05 00:27:27;;;;;;;3.72;1.33;;;18.50;58.30;;;;;;5153098;27;20152;-83
2022/01/05 00:29:54;;;;;;;5.05;1.35;;;18.50;58.30;;;;;;5118871;27;20614;-82
2022/01/05 00:32:20;;;;;;;5.20;1.60;;;18.50;58.60;;;;;;5153106;27;20166;-84
2022/01/05 00:34:45;;;;;;;4.35;1.50;;;18.40;58.20;;;;;;5153198;27;20155;-84
2022/01/05 00:37:11;;;;;;;4.45;1.60;;;18.50;58.50;;;;;;5137225;27;20238;-83
2022/01/05 00:39:37;;;;;;;6.50;1.55;;;18.50;58.40;;;;;;5118564;27;20617;-84
2022/01/05 00:42:03;;;;;;;6.35;1.42;;;18.40;58.40;;;;;;5153431;27;20645;-84
2022/01/05 00:44:28;;;;;;;5.05;1.35;;;18.50;58.40;;;;;;5135496;27;20163;-84
2022/01/05 00:46:54;;;;;;;4.07;1.70;;;18.50;58.40;;;;;;5135664;27;20181;-83
2022/01/05 00:49:20;;;;;;;3.95;1.50;;;18.50;58.20;;;;;;5135950;27;20159;-84
2022/01/05 00:51:46;;;;;;;7.22;1.88;;;18.50;58.30;;;;;;5135358;27;20159;-83
2022/01/05 00:54:12;;;;;;;6.32;1.65;;;18.40;58.40;;;;;;5152775;27;20246;-84
2022/01/05 00:56:38;;;;;;;4.93;1.80;;;18.40;58.40;;;;;;5135108;27;20250;-84
2022/01/05 00:59:03;;;;;;;5.97;1.70;;;18.40;58.30;;;;;;5135139;27;20163;-84
2022/01/05 01:01:29;;;;;;;4.95;1.77;;;18.40;58.30;;;;;;5135018;27;20159;-83
2022/01/05 01:03:55;;;;;;;5.10;1.40;;;18.40;58.30;;;;;;5152649;27;20148;-83
2022/01/05 01:06:20;;;;;;;3.45;1.38;;;18.40;58.50;;;;;;5136678;27;20140;-84
2022/01/05 01:08:46;;;;;;;5.20;1.80;;;18.40;58.50;;;;;;5136332;27;20197;-82
2022/01/05 01:11:13;;;;;;;5.07;1.60;;;18.50;58.30;;;;;;5118004;27;20524;-83
2022/01/05 01:13:39;;;;;;;3.63;1.40;;;18.40;58.30;;;;;;5135236;27;20171;-84
2022/01/05 01:16:05;;;;;;;3.80;1.55;;;18.40;58.40;;;;;;5117705;27;20191;-83
2022/01/05 01:18:33;;;;;;;5.20;1.70;;;18.40;58.30;;;;;;5134813;27;20225;-83
2022/01/05 01:20:58;;;;;;;5.30;1.77;;;18.40;58.30;;;;;;5117833;27;20641;-83
2022/01/05 01:23:26;;;;;;;3.55;1.63;;;18.40;58.50;;;;;;5134971;27;20155;-84
2022/01/05 01:25:54;;;;;;;5.13;1.73;;;18.30;58.10;;;;;;5135102;27;20593;-84
2022/01/05 01:28:20;;;;;;;5.20;1.65;;;18.40;58.30;;;;;;5135043;27;20160;-83
2022/01/05 01:30:47;;;;;;;3.22;1.58;;;18.40;58.30;;;;;;5151856;27;20209;-83
2022/01/05 01:33:12;;;;;;;3.58;1.35;;;18.40;58.40;;;;;;5152234;27;20243;-83
2022/01/05 01:35:38;;;;;;;7.13;1.48;;;18.40;58.30;;;;;;5152356;27;20179;-83
2022/01/05 01:38:04;;;;;;;6.32;1.55;;;18.40;58.40;;;;;;5134457;27;20258;-83
2022/01/05 01:40:30;;;;;;;5.22;1.88;;;18.40;58.40;;;;;;5134426;27;20159;-83
2022/01/05 01:42:55;;;;;;;4.97;1.48;;;18.40;58.10;;;;;;5151754;27;20152;-83
2022/01/05 01:45:22;;;;;;;3.15;1.40;;;18.40;58.20;;;;;;5135663;27;20159;-83
2022/01/05 01:47:47;;;;;;;5.75;1.45;;;18.30;58.20;;;;;;5134437;27;20183;-84
2022/01/05 01:50:13;;;;;;;3.15;1.30;;;18.40;58.20;;;;;;5151731;27;20235;-83
2022/01/05 01:52:40;;;;;;;6.40;1.70;;;18.40;58.20;;;;;;5134462;27;20156;-83
2022/01/05 01:55:07;;;;;;;4.10;1.40;;;18.40;58.20;;;;;;5151466;27;20152;-83
2022/01/05 01:57:34;;;;;;;6.22;1.60;;;18.40;58.20;;;;;;5151564;27;20294;-83
2022/01/05 02:00:00;;;;;;;3.95;1.48;;;18.40;58.10;;;;;;5134148;27;20151;-83
2022/01/05 02:02:25;;;;;;;3.65;1.35;;;18.40;58.40;;;;;;5134599;27;20154;-84
2022/01/05 02:04:52;;;;;;;3.75;1.38;;;18.30;58.50;;;;;;5134526;27;20160;-84
2022/01/05 02:07:18;;;;;;;4.22;1.40;;;18.30;58.20;;;;;;5151976;27;20167;-84
2022/01/05 02:09:44;;;;;;;3.70;1.40;;;18.40;58.30;;;;;;5134380;27;20160;-83
2022/01/05 02:12:10;;;;;;;5.57;1.30;;;18.30;58.30;;;;;;5151727;27;20158;-83
2022/01/05 02:14:36;;;;;;;5.78;1.42;;;18.30;58.30;;;;;;5151414;27;20192;-85
2022/01/05 02:17:08;;;;;;;5.57;1.50;;;18.30;58.00;;;;;;5134458;28;20289;-84
2022/01/05 02:19:33;;;;;;;4.88;1.58;;;18.40;58.10;;;;;;5150794;27;20154;-83
2022/01/05 02:22:00;;;;;;;6.35;1.70;;;18.30;58.20;;;;;;5151359;27;20160;-84
2022/01/05 02:24:26;;;;;;;5.22;1.48;;;18.30;58.20;;;;;;5151784;27;20158;-83
2022/01/05 02:26:54;;;;;;;5.25;1.60;;;18.20;58.20;;;;;;5133859;28;20156;-83
2022/01/05 02:29:22;;;;;;;4.07;1.27;;;18.30;58.30;;;;;;5134128;28;20252;-83
2022/01/05 02:31:48;;;;;;;3.80;1.40;;;18.30;58.40;;;;;;5151704;27;20209;-84
2022/01/05 02:34:16;;;;;;;3.97;1.52;;;18.30;58.30;;;;;;5117298;28;20186;-83
2022/01/05 02:36:42;;;;;;;4.32;1.58;;;18.30;58.40;;;;;;5151933;27;20178;-82
2022/01/05 02:39:08;;;;;;;3.22;1.35;;;18.30;58.50;;;;;;5134165;28;20178;-84
2022/01/05 02:41:33;;;;;;;3.25;1.17;;;18.20;58.40;;;;;;5134245;28;20617;-83
2022/01/05 02:43:59;;;;;;;5.15;1.55;;;18.30;58.40;;;;;;5151364;27;20205;-83
2022/01/05 02:46:25;;;;;;;2.70;1.23;;;18.30;58.50;;;;;;5134830;28;20499;-84
2022/01/05 02:48:52;;;;;;;6.20;1.60;;;18.30;58.10;;;;;;5151627;27;20618;-83
2022/01/05 02:51:18;;;;;;;3.45;1.35;;;18.20;58.40;;;;;;5133926;28;20547;-83
2022/01/05 02:53:45;;;;;;;4.20;1.42;;;18.20;58.20;;;;;;5134354;28;20243;-83
2022/01/05 02:56:10;;;;;;;3.40;1.45;;;18.30;58.40;;;;;;5136109;27;20218;-84
2022/01/05 02:58:36;;;;;;;5.72;1.75;;;18.30;58.40;;;;;;5120616;27;20198;-83
2022/01/05 03:01:02;;;;;;;2.70;1.35;;;18.30;58.40;;;;;;5139594;27;20155;-84
2022/01/05 03:03:28;;;;;;;4.22;1.35;;;18.20;58.30;;;;;;5154854;27;20160;-84
2022/01/05 03:05:53;;;;;;;2.85;1.13;;;18.20;58.40;;;;;;5155380;27;20188;-83
2022/01/05 03:08:19;;;;;;;4.88;1.45;;;18.30;58.40;;;;;;5137866;27;20617;-83
2022/01/05 03:10:48;;;;;;;3.83;1.67;;;18.20;58.50;;;;;;5155237;27;20156;-83
2022/01/05 03:13:14;;;;;;;2.85;1.30;;;18.20;58.30;;;;;;5155107;27;20160;-84
2022/01/05 03:15:40;;;;;;;4.78;1.50;;;18.20;58.40;;;;;;5154753;27;20204;-83
2022/01/05 03:18:07;;;;;;;3.63;1.42;;;18.20;58.20;;;;;;5137621;27;20187;-84
2022/01/05 03:20:34;;;;;;;4.55;1.45;;;18.20;58.20;;;;;;5137397;27;20185;-83
2022/01/05 03:23:03;;;;;;;6.25;1.58;;;18.20;58.30;;;;;;5137575;27;20147;-83
2022/01/05 03:25:29;;;;;;;5.13;1.40;;;18.20;58.40;;;;;;5137368;27;20200;-83
2022/01/05 03:27:55;;;;;;;4.15;1.50;;;18.20;58.40;;;;;;5137355;27;20234;-83
2022/01/05 03:30:23;;;;;;;4.70;1.52;;;18.20;58.50;;;;;;5137467;27;20166;-83
2022/01/05 03:33:09;;;;;;;3.28;1.30;;;18.10;58.30;;;;;;5138345;27;20178;-84
2022/01/05 03:35:37;;;;;;;4.90;1.50;;;18.20;58.50;;;;;;5137428;27;20374;-83
2022/01/05 03:38:05;;;;;;;3.70;1.30;;;18.20;58.40;;;;;;5137004;27;20213;-83
2022/01/05 03:40:32;;;;;;;3.17;1.25;;;18.20;58.40;;;;;;5119894;27;20533;-83
2022/01/05 03:42:58;;;;;;;5.22;1.48;;;18.20;58.30;;;;;;5154445;27;20219;-84
2022/01/05 03:45:26;;;;;;;4.93;1.27;;;18.20;58.30;;;;;;5137539;27;20166;-83
2022/01/05 03:47:52;;;;;;;5.65;1.58;;;18.20;58.30;;;;;;5137252;27;20159;-84
2022/01/05 03:50:20;;;;;;;3.35;1.20;;;18.20;58.50;;;;;;5154252;27;20182;-84
2022/01/05 03:52:45;;;;;;;3.58;1.30;;;18.20;59.10;;;;;;5136506;27;20603;-83
2022/01/05 03:55:11;;;;;;;4.07;1.40;;;18.20;58.40;;;;;;5137932;27;20211;-83
2022/01/05 03:57:38;;;;;;;3.53;1.52;;;18.10;58.50;;;;;;5153809;27;20195;-83
2022/01/05 04:00:05;;;;;;;6.38;1.52;;;18.20;58.50;;;;;;5119896;27;20163;-83
2022/01/05 04:02:31;;;;;;;3.38;1.13;;;18.20;58.30;;;;;;5136743;27;20167;-84
2022/01/05 04:04:56;;;;;;;2.55;1.25;;;18.10;58.40;;;;;;5153704;27;20167;-83
2022/01/05 04:07:23;;;;;;;3.92;1.48;;;18.10;58.50;;;;;;5152891;27;20151;-83
2022/01/05 04:09:50;;;;;;;4.15;1.10;;;18.10;58.30;;;;;;5136626;27;20167;-83
2022/01/05 04:12:15;;;;;;;3.85;1.15;;;18.10;58.50;;;;;;5153663;27;20181;-84
2022/01/05 04:14:42;;;;;;;3.22;1.50;;;18.00;58.30;;;;;;5153979;27;20175;-85
2022/01/05 04:17:07;;;;;;;3.20;1.00;;;18.10;58.30;;;;;;5153660;27;20611;-84
2022/01/05 04:19:34;;;;;;;4.68;1.20;;;18.20;57.70;;;;;;5136780;27;20640;-84
2022/01/05 04:22:02;;;;;;;2.45;1.15;;;18.20;56.70;;;;;;5136891;27;20242;-84
2022/01/05 04:24:27;;;;;;;4.50;1.42;;;18.30;57.20;;;;;;5153868;27;20152;-84
2022/01/05 04:26:53;;;;;;;4.30;1.58;;;18.30;56.90;;;;;;5154028;27;20167;-82
2022/01/05 04:29:19;;;;;;;2.30;1.40;;;18.40;56.90;;;;;;5154015;27;20166;-83
2022/01/05 04:31:45;;;;;;;2.42;1.27;;;18.40;57.00;;;;;;5136374;27;20156;-83
2022/01/05 04:34:12;;;;;;;3.80;1.52;;;18.40;56.90;;;;;;5153690;27;20148;-84
2022/01/05 04:36:38;;;;;;;3.13;1.33;;;18.40;56.70;;;;;;5136395;27;20152;-84
2022/01/05 04:39:04;;;;;;;3.15;1.15;;;18.50;56.60;;;;;;5154122;27;20162;-83
2022/01/05 04:41:29;;;;;;;3.70;1.23;;;18.50;56.60;;;;;;5153694;27;20156;-83
2022/01/05 04:43:55;;;;;;;3.25;1.25;;;18.50;56.60;;;;;;5153345;27;20531;-83
2022/01/05 04:46:21;;;;;;;4.07;1.63;;;18.50;56.50;;;;;;5119195;27;20163;-83
2022/01/05 04:48:47;;;;;;;3.22;1.10;;;18.50;56.40;;;;;;5153700;27;20171;-84
2022/01/05 04:51:13;;;;;;;1.90;0.90;;;18.60;56.40;;;;;;5137752;27;20178;-83
2022/01/05 04:53:38;;;;;;;2.35;1.13;;;18.60;56.40;;;;;;5153378;27;20569;-84
2022/01/05 04:56:04;;;;;;;2.65;1.00;;;18.60;56.40;;;;;;5153028;27;20626;-84
2022/01/05 04:58:31;;;;;;;4.28;1.17;;;18.60;56.30;;;;;;5137406;27;20199;-83
2022/01/05 05:01:02;;;;;;;2.30;1.20;;;18.60;56.10;;;;;;5136646;27;20294;-83
2022/01/05 05:03:27;;;;;;;3.13;1.05;;;18.70;56.10;;;;;;5153531;27;20159;-83
2022/01/05 05:05:55;;;;;;;5.05;1.40;;;18.70;56.10;;;;;;5153022;27;20159;-83
2022/01/05 05:08:20;;;;;;;4.03;1.45;;;18.70;55.90;;;;;;5101266;27;20228;-83
2022/01/05 05:10:49;;;;;;;3.47;1.20;;;18.70;55.80;;;;;;5135746;27;20616;-83
2022/01/05 05:13:15;;;;;;;3.63;1.20;;;18.70;55.80;;;;;;5137470;27;20156;-84
2022/01/05 05:15:40;;;;;;;2.55;1.17;;;18.70;55.80;;;;;;5135871;27;20167;-84
2022/01/05 05:18:06;;;;;;;2.30;1.10;;;18.70;55.80;;;;;;5118073;27;20187;-84
2022/01/05 05:20:33;;;;;;;4.05;1.40;;;18.70;55.60;;;;;;5137072;27;20147;-83
2022/01/05 05:22:59;;;;;;;3.55;1.27;;;18.70;55.60;;;;;;5152593;27;20163;-83
2022/01/05 05:25:25;;;;;;;2.85;1.33;;;18.80;55.60;;;;;;5152751;27;20150;-85
2022/01/05 05:27:52;;;;;;;2.97;1.30;;;18.80;55.50;;;;;;5152842;27;20159;-83
2022/01/05 05:30:19;;;;;;;6.15;1.20;;;18.80;55.50;;;;;;5135532;27;20154;-84
2022/01/05 05:32:45;;;;;;;3.45;1.00;;;18.70;55.40;;;;;;5135623;27;20206;-83
2022/01/05 05:35:11;;;;;;;2.90;1.20;;;18.80;55.40;;;;;;5135076;27;20614;-84
2022/01/05 05:37:36;;;;;;;2.90;1.00;;;18.80;55.20;;;;;;5152495;27;20274;-84
2022/01/05 05:40:03;;;;;;;4.03;1.55;;;18.80;55.30;;;;;;5135512;27;20584;-84
2022/01/05 05:42:29;;;;;;;3.67;1.42;;;18.80;55.10;;;;;;5135508;27;20151;-83
2022/01/05 05:44:54;;;;;;;1.92;0.98;;;18.80;55.20;;;;;;5152446;27;20606;-85
2022/01/05 05:47:20;;;;;;;3.33;1.50;;;18.80;55.10;;;;;;5135435;27;20246;-84
2022/01/05 05:49:46;;;;;;;2.17;1.08;;;18.80;55.20;;;;;;5135001;27;20159;-84
2022/01/05 05:52:13;;;;;;;3.03;1.40;;;18.80;55.10;;;;;;5136616;27;20234;-83
2022/01/05 05:54:38;;;;;;;3.20;1.30;;;18.80;55.00;;;;;;5134988;27;20614;-84
2022/01/05 05:57:04;;;;;;;1.98;0.93;;;18.90;55.00;;;;;;5136320;27;20222;-84
2022/01/05 05:59:30;;;;;;;4.10;1.30;;;18.90;55.00;;;;;;5117559;27;20170;-84
2022/01/05 06:01:59;;;;;;;1.80;1.10;;;18.90;55.00;;;;;;5152141;27;20163;-84
2022/01/05 06:04:26;;;;;;;3.40;1.17;;;18.90;54.60;;;;;;5135360;27;20155;-83
2022/01/05 06:06:52;;;;;;;1.52;0.98;;;18.90;54.90;;;;;;5152402;27;20532;-83
2022/01/05 06:09:20;;;;;;;3.10;1.23;;;18.90;54.80;;;;;;5121069;27;20189;-83
2022/01/05 06:11:49;;;;;;;2.75;1.00;;;18.90;54.70;;;;;;5144022;27;20151;-83
2022/01/05 06:14:15;;;;;;;2.47;1.17;;;18.90;54.50;;;;;;5141511;27;20172;-83
2022/01/05 06:16:43;;;;;;;3.40;1.10;;;18.90;54.60;;;;;;5106532;28;20160;-82
2022/01/05 06:19:09;;;;;;;4.20;1.00;;;19.00;54.80;;;;;;5091175;28;20164;-82
2022/01/05 06:21:36;;;;;;;1.55;0.90;;;18.90;54.70;;;;;;5107636;28;20167;-82
2022/01/05 06:24:02;;;;;;;2.42;1.20;;;19.00;54.70;;;;;;5074225;28;20231;-82
2022/01/05 06:26:28;;;;;;;2.25;1.05;;;19.00;54.60;;;;;;5091466;28;20164;-82
2022/01/05 06:28:54;;;;;;;2.55;0.90;;;19.00;54.60;;;;;;5106685;28;20201;-82
2022/01/05 06:31:20;;;;;;;1.95;0.90;;;19.00;54.60;;;;;;5110045;28;20171;-83
2022/01/05 06:33:46;;;;;;;2.05;0.90;;;19.00;54.50;;;;;;5111474;28;20271;-82
2022/01/05 06:36:12;;;;;;;2.35;1.05;;;19.00;54.60;;;;;;5127659;28;20156;-82
2022/01/05 06:38:38;;;;;;;2.10;1.08;;;19.00;54.50;;;;;;5127184;28;20195;-82
2022/01/05 06:41:03;;;;;;;2.20;1.00;;;19.00;54.30;;;;;;5142862;27;20148;-83
2022/01/05 06:43:31;;;;;;;1.33;1.00;;;19.00;54.30;;;;;;5108690;28;20164;-82
2022/01/05 06:45:59;;;;;;;3.10;1.10;;;19.00;54.40;;;;;;5109439;28;20178;-82
2022/01/05 06:48:27;;;;;;;1.45;0.82;;;19.00;54.30;;;;;;5142816;27;20200;-83
2022/01/05 06:50:55;;;;;;;2.15;0.82;;;19.00;54.30;;;;;;5142667;27;20522;-83
2022/01/05 06:53:21;;;;;;;2.75;0.98;;;19.00;54.20;;;;;;5125853;28;20219;-82
2022/01/05 06:55:47;;;;;;;2.10;1.20;;;19.00;54.00;;;;;;5142672;27;20239;-83
2022/01/05 06:58:12;;;;;;;2.47;1.00;;;19.00;54.10;;;;;;5108555;28;20192;-83
2022/01/05 07:00:40;;;;;;;2.50;0.98;;;19.00;54.10;;;;;;5109743;28;20186;-82
2022/01/05 07:03:07;;;;;;;2.90;1.20;;;19.10;54.20;;;;;;5093285;28;20164;-82
2022/01/05 07:05:33;;;;;;;1.90;0.90;;;19.10;53.90;;;;;;5110328;28;20152;-82
2022/01/05 07:07:59;;;;;;;7.65;1.30;;;19.10;54.00;;;;;;5111173;28;20671;-81
2022/01/05 07:10:26;;;;;;;16.13;1.73;;;19.10;53.90;;;;;;5110504;28;20163;-81
2022/01/05 07:12:52;;;;;;;20.83;2.13;;;19.10;54.00;;;;;;5092605;28;20193;-81
2022/01/05 07:15:21;;;;;;;28.98;2.72;;;19.10;54.10;;;;;;5109169;28;20156;-82
2022/01/05 07:17:46;;;;;;;23.48;2.60;;;19.10;54.00;;;;;;5110490;28;20236;-82
2022/01/05 07:20:13;;;;;;;14.30;2.60;;;19.10;53.70;;;;;;5127492;28;20178;-82
2022/01/05 07:22:39;;;;;;;17.25;2.00;;;19.10;53.70;;;;;;5107787;28;20178;-81
2022/01/05 07:25:05;;;;;;;13.02;2.03;;;19.10;53.70;;;;;;5108830;28;20625;-82
2022/01/05 07:27:36;;;;;;;14.07;1.70;;;19.10;53.50;;;;;;5109176;28;20156;-82
2022/01/05 07:30:04;;;;;;;9.73;1.60;;;19.10;53.60;;;;;;5127278;28;20156;-82
2022/01/05 07:32:29;;;;;;;9.23;1.42;;;19.10;53.80;;;;;;5108391;28;20145;-82
2022/01/05 07:34:56;;;;;;;8.30;1.40;;;19.10;53.70;;;;;;5107669;28;20154;-82
2022/01/05 07:37:22;;;;;;;11.48;1.25;;;19.10;53.60;;;;;;5108902;28;20571;-82
2022/01/05 07:39:47;;;;;;;10.57;1.50;;;19.20;53.90;;;;;;5109582;28;20159;-82
2022/01/05 07:42:15;;;;;;;7.28;1.45;;;19.10;53.70;;;;;;5093273;28;20191;-82
2022/01/05 07:44:43;;;;;;;7.78;1.48;;;19.20;53.50;;;;;;5109177;28;20148;-81
2022/01/05 07:47:09;;;;;;;8.40;1.20;;;19.20;53.40;;;;;;5111565;28;20164;-81
2022/01/05 07:49:37;;;;;;;7.53;1.33;;;19.20;53.30;;;;;;5093887;28;20210;-81
2022/01/05 07:52:08;;;;;;;9.88;1.75;;;19.20;53.40;;;;;;5110021;28;20160;-82
2022/01/05 07:54:34;;;;;;;4.95;1.27;;;19.20;53.50;;;;;;5111459;28;20160;-81
2022/01/05 07:57:00;;;;;;;5.32;1.23;;;19.20;53.40;;;;;;5105594;28;20223;-82
2022/01/05 07:59:28;;;;;;;8.13;1.67;;;19.20;53.30;;;;;;5109655;28;20203;-82
2022/01/05 08:01:53;;;;;;;9.40;1.92;;;19.20;53.30;;;;;;5109789;28;20232;-81
2022/01/05 08:04:20;;;;;;;8.95;1.38;;;19.20;53.40;;;;;;5109607;28;20153;-83
2022/01/05 08:06:47;;;;;;;16.23;1.50;;;19.20;53.50;;;;;;5109662;28;20595;-81
2022/01/05 08:09:12;;;;;;;8.10;1.40;;;19.20;53.50;;;;;;5128451;28;20178;-81
2022/01/05 08:11:38;;;;;;;7.20;1.55;;;19.20;53.50;;;;;;5109534;28;20175;-81
2022/01/05 08:14:05;;;;;;;7.60;1.10;;;19.20;53.30;;;;;;5109742;28;20160;-81
2022/01/05 08:16:30;;;;;;;5.97;1.30;;;19.20;53.20;;;;;;5110424;28;20183;-81
2022/01/05 08:18:56;;;;;;;7.47;1.33;;;19.20;53.40;;;;;;5110928;28;20188;-80
2022/01/05 08:21:22;;;;;;;5.45;1.17;;;19.20;53.20;;;;;;5110689;28;20185;-81
2022/01/05 08:23:48;;;;;;;5.60;1.00;;;19.20;53.20;;;;;;5091852;28;20171;-81
2022/01/05 08:26:14;;;;;;;5.95;1.10;;;19.20;53.10;;;;;;5108099;28;20172;-81
2022/01/05 08:28:41;;;;;;;7.13;1.15;;;19.20;53.20;;;;;;5109585;28;20236;-81
2022/01/05 08:31:06;;;;;;;4.32;1.35;;;19.30;53.10;;;;;;5109578;28;20157;-81
2022/01/05 08:33:36;;;;;;;7.28;1.63;;;19.30;53.10;;;;;;5110032;28;20640;-81
2022/01/05 08:36:02;;;;;;;6.70;1.38;;;19.30;53.20;;;;;;5128598;28;20167;-82
2022/01/05 08:38:28;;;;;;;4.03;1.15;;;19.30;53.20;;;;;;5109761;28;20195;-82
2022/01/05 08:40:54;;;;;;;8.15;1.33;;;19.20;53.30;;;;;;5126571;28;20168;-82
2022/01/05 08:43:20;;;;;;;4.53;1.15;;;19.20;53.20;;;;;;5109870;28;20508;-82
2022/01/05 08:45:46;;;;;;;5.20;1.17;;;19.20;53.00;;;;;;5109899;28;20152;-80
2022/01/05 08:48:16;;;;;;;3.50;1.27;;;19.20;53.10;;;;;;5110146;28;20217;-81
2022/01/05 08:50:44;;;;;;;4.65;1.17;;;19.20;53.00;;;;;;5108490;28;20255;-81
2022/01/05 08:53:10;;;;;;;6.20;1.38;;;19.30;53.00;;;;;;5109007;27;20186;-82
2022/01/05 08:55:39;;;;;;;3.42;1.20;;;19.20;53.10;;;;;;5124892;27;20226;-81
2022/01/05 08:58:07;;;;;;;4.95;1.45;;;19.20;52.90;;;;;;5116598;28;20210;-79
2022/01/05 09:00:32;;;;;;;5.40;1.40;;;19.20;53.00;;;;;;5091030;28;20159;-82
2022/01/05 09:02:59;;;;;;;5.82;1.13;;;19.20;53.30;;;;;;5107144;28;20224;-82
2022/01/05 09:05:25;;;;;;;4.05;1.05;;;19.30;53.90;;;;;;5072780;28;20160;-81
2022/01/05 09:07:51;;;;;;;3.92;1.15;;;19.30;52.90;;;;;;5089533;28;20167;-83
2022/01/05 09:10:18;;;;;;;3.55;1.10;;;19.30;53.10;;;;;;5107955;28;20179;-81
2022/01/05 09:12:45;;;;;;;5.78;1.10;;;19.30;52.80;;;;;;5096444;28;20576;-81
2022/01/05 09:15:11;;;;;;;6.60;1.20;;;19.30;52.90;;;;;;5107115;28;20176;-81
2022/01/05 09:17:39;;;;;;;2.72;1.13;;;19.30;53.00;;;;;;5136549;27;20267;-79
2022/01/05 09:20:08;;;;;;;5.65;1.50;;;19.30;53.00;;;;;;5089388;28;20164;-80
2022/01/05 09:22:38;;;;;;;6.30;1.27;;;19.30;53.20;;;;;;5103811;28;20167;-80
2022/01/05 09:25:10;;;;;;;3.05;0.95;;;19.30;53.10;;;;;;5083684;28;20164;-79
2022/01/05 09:27:37;;;;;;;2.72;0.95;;;19.30;52.80;;;;;;5100700;28;20180;-80
2022/01/05 09:30:04;;;;;;;3.58;1.25;;;19.30;53.10;;;;;;5087825;28;20206;-81
2022/01/05 09:32:30;;;;;;;4.70;1.10;;;19.30;53.20;;;;;;5087298;28;20176;-81
2022/01/05 09:34:56;;;;;;;6.13;1.38;;;19.20;53.10;;;;;;5083795;28;20175;-81
2022/01/05 09:37:27;;;;;;;5.75;1.25;;;19.20;52.80;;;;;;5066951;28;20211;-81
2022/01/05 09:42:38;;;;;;;3.75;1.30;;;19.30;52.80;;;;;;5098321;28;20307;-81
2022/01/05 09:45:22;;;;;;;4.30;1.05;;;19.20;52.90;;;;;;5102371;28;20176;-81
2022/01/05 09:48:22;;;;;;;3.53;1.05;;;19.30;52.50;;;;;;5109587;28;20168;-84
2022/01/05 09:50:58;;;;;;;4.55;1.23;;;19.30;52.80;;;;;;5135177;27;20176;-84
2022/01/05 09:53:24;;;;;;;3.55;1.20;;;19.30;52.70;;;;;;5099529;28;20175;-83
2022/01/05 09:55:51;;;;;;;5.72;1.45;;;19.30;53.00;;;;;;5091587;28;20220;-82
2022/01/05 09:58:20;;;;;;;4.57;1.25;;;19.30;52.80;;;;;;5107110;28;20191;-82
2022/01/05 10:00:47;;;;;;;6.03;1.42;;;19.30;53.10;;;;;;5106082;28;20155;-81
2022/01/05 10:03:14;;;;;;;5.18;1.40;;;19.30;52.90;;;;;;5105791;28;20160;-81
2022/01/05 10:05:41;;;;;;;5.75;1.30;;;19.30;53.00;;;;;;5104738;28;20148;-81
2022/01/05 10:08:07;;;;;;;4.80;1.20;;;19.30;52.80;;;;;;5105486;28;20152;-81
2022/01/05 10:10:32;;;;;;;6.40;1.30;;;19.30;52.80;;;;;;5105190;28;20175;-81
2022/01/05 10:12:58;;;;;;;5.30;1.10;;;19.30;52.80;;;;;;5105831;28;20144;-81
2022/01/05 10:15:25;;;;;;;3.22;1.17;;;19.30;52.80;;;;;;5123455;28;20176;-82
2022/01/05 10:18:10;;;;;;;3.78;1.20;;;19.30;52.70;;;;;;5068747;28;20196;-81
2022/01/05 10:20:35;;;;;;;5.90;1.45;;;19.30;52.50;;;;;;5084501;28;20603;-83
2022/01/05 10:23:02;;;;;;;3.95;1.10;;;19.40;52.60;;;;;;5084493;28;20157;-83
2022/01/05 10:25:28;;;;;;;6.40;1.17;;;19.40;52.60;;;;;;5101517;28;20172;-81
2022/01/05 10:28:00;;;;;;;2.75;1.10;;;19.40;52.60;;;;;;5100524;28;20157;-82
2022/01/05 10:30:43;;;;;;;5.90;1.10;;;19.40;52.50;;;;;;5099871;28;20228;-82
2022/01/05 10:33:09;;;;;;;1.92;0.90;;;19.40;52.40;;;;;;5100672;28;20568;-81
2022/01/05 10:35:37;;;;;;;3.47;0.88;;;19.40;52.50;;;;;;5101590;28;20238;-81
2022/01/05 10:38:05;;;;;;;3.88;0.90;;;19.30;52.30;;;;;;5107977;28;20188;-82
2022/01/05 10:40:33;;;;;;;4.03;1.30;;;19.30;52.60;;;;;;5127185;28;20179;-81
2022/01/05 10:42:58;;;;;;;3.45;1.00;;;19.40;52.60;;;;;;5126781;28;20178;-81
2022/01/05 10:45:41;;;;;;;7.30;1.23;;;19.40;52.60;;;;;;5109153;28;20189;-81
2022/01/05 10:48:16;;;;;;;4.80;1.10;;;19.30;52.50;;;;;;5126762;28;20173;-81
2022/01/05 10:50:45;;;;;;;4.00;1.40;;;19.30;52.80;;;;;;5127832;28;20204;-83
2022/01/05 10:53:15;;;;;;;3.75;1.20;;;19.40;52.90;;;;;;5126571;28;20193;-82
2022/01/05 10:55:42;;;;;;;3.65;1.25;;;19.30;52.50;;;;;;5121987;28;20224;-81
2022/01/05 10:58:10;;;;;;;5.93;1.20;;;19.30;52.30;;;;;;5122734;28;20184;-81
2022/01/05 11:00:45;;;;;;;3.50;1.10;;;19.30;52.50;;;;;;5121290;28;20175;-82
2022/01/05 11:03:35;;;;;;;2.47;1.23;;;19.40;52.60;;;;;;5138859;28;20189;-82
2022/01/05 11:06:09;;;;;;;3.40;1.00;;;19.40;52.40;;;;;;5122477;28;20175;-82
2022/01/05 11:08:57;;;;;;;4.32;1.20;;;19.30;52.70;;;;;;5122743;28;20235;-81
2022/01/05 11:11:39;;;;;;;3.80;1.10;;;19.30;52.60;;;;;;5121598;28;20662;-81
2022/01/05 11:14:09;;;;;;;3.88;1.00;;;19.30;54.00;;;;;;5121717;28;20172;-81
2022/01/05 11:16:40;;;;;;;3.90;1.15;;;19.40;53.90;;;;;;5121826;28;20164;-81
2022/01/05 11:19:23;;;;;;;4.30;1.38;;;19.30;52.70;;;;;;5107323;28;20160;-81
2022/01/05 11:22:07;;;;;;;6.15;1.20;;;19.40;52.70;;;;;;5109264;28;20175;-80
2022/01/05 11:24:46;;;;;;;3.33;1.08;;;19.40;53.50;;;;;;5104705;28;20179;-82
2022/01/05 11:27:15;;;;;;;2.90;1.15;;;19.40;53.40;;;;;;5120117;28;20148;-81
2022/01/05 11:29:44;;;;;;;4.38;1.13;;;19.40;53.30;;;;;;5119256;28;20209;-80
2022/01/05 11:32:12;;;;;;;5.95;1.20;;;19.40;53.30;;;;;;5105532;28;20302;-80
2022/01/05 11:34:39;;;;;;;3.83;1.30;;;19.40;53.20;;;;;;5126380;28;20183;-79
2022/01/05 11:37:07;;;;;;;1.45;1.02;;;19.40;52.70;;;;;;5128233;28;20196;-80
2022/01/05 11:39:34;;;;;;;4.10;1.10;;;19.40;53.00;;;;;;5127464;27;20763;-81
2022/01/05 11:42:01;;;;;;;1.90;0.95;;;19.50;53.10;;;;;;5107104;28;20231;-82
2022/01/05 11:44:28;;;;;;;4.20;1.00;;;19.40;53.00;;;;;;5124710;28;20175;-82
2022/01/05 11:46:56;;;;;;;3.58;1.10;;;19.40;53.30;;;;;;5106591;28;20191;-79
2022/01/05 11:49:25;;;;;;;4.47;1.10;;;19.30;53.20;;;;;;5120950;28;20164;-82
2022/01/05 11:51:53;;;;;;;2.70;1.00;;;19.40;53.30;;;;;;5126261;28;20160;-81
2022/01/05 11:54:26;;;;;;;3.28;0.90;;;19.40;53.50;;;;;;5125012;28;20200;-80
2022/01/05 11:56:57;;;;;;;2.85;1.15;;;19.40;53.70;;;;;;5108202;27;20293;-80
2022/01/05 11:59:35;;;;;;;3.92;1.20;;;19.40;53.60;;;;;;5124559;27;20174;-81
2022/01/05 12:02:03;;;;;;;3.58;1.23;;;19.40;53.80;;;;;;5113049;28;20186;-82
2022/01/05 12:04:30;;;;;;;2.42;1.10;;;19.40;53.80;;;;;;5135531;27;20633;-83
2022/01/05 12:07:02;;;;;;;4.65;1.05;;;19.40;53.60;;;;;;5120358;27;20509;-82
2022/01/05 12:09:30;;;;;;;3.88;1.40;;;19.40;53.40;;;;;;5126232;27;20506;-82
2022/01/05 12:12:00;;;;;;;5.13;1.33;;;19.50;53.40;;;;;;5118388;28;20168;-82
2022/01/05 12:14:43;;;;;;;1.38;0.80;;;19.50;53.30;;;;;;5141276;27;20213;-82
2022/01/05 12:17:12;;;;;;;6.32;1.38;;;19.50;53.60;;;;;;5126299;27;20213;-81
2022/01/05 12:19:57;;;;;;;1.75;1.35;;;19.50;53.70;;;;;;5109469;27;20211;-83
2022/01/05 12:22:26;;;;;;;2.65;0.98;;;19.50;53.50;;;;;;5115896;28;20250;-83
2022/01/05 12:25:07;;;;;;;2.80;0.80;;;19.50;53.70;;;;;;5117190;28;20184;-81
2022/01/05 12:27:35;;;;;;;3.03;1.10;;;19.50;53.60;;;;;;5099036;28;20220;-83
2022/01/05 12:30:31;;;;;;;4.68;1.50;;;19.50;53.60;;;;;;5110075;28;20650;-82
2022/01/05 12:33:15;;;;;;;2.95;1.23;;;19.50;53.20;;;;;;5105101;27;20171;-82
2022/01/05 12:35:43;;;;;;;2.58;1.00;;;19.50;53.10;;;;;;5122720;27;20155;-82
2022/01/05 12:38:09;;;;;;;1.92;1.00;;;19.50;52.90;;;;;;5131077;27;20183;-83
2022/01/05 12:40:36;;;;;;;2.08;1.30;;;19.50;53.00;;;;;;5119796;28;20156;-83
2022/01/05 12:43:31;;;;;;;4.55;1.30;;;19.50;53.20;;;;;;5105477;28;20218;-81
2022/01/05 12:46:03;;;;;;;2.20;1.20;;;19.50;53.30;;;;;;5111543;27;20172;-80
2022/01/05 12:48:55;;;;;;;3.92;1.25;;;19.50;53.60;;;;;;5101250;28;20224;-81
2022/01/05 12:51:47;;;;;;;3.75;1.20;;;19.50;53.30;;;;;;5100472;28;20263;-81